createdAt,value
2022-09-21T00:01:18.040Z,9.95
2022-09-21T00:03:47.632Z,10.35
2022-09-21T00:08:46.283Z,22.60
2022-09-21T00:11:21.087Z,9.68
2022-09-21T00:13:47.827Z,15.40
2022-09-21T00:16:17.000Z,13.90
2022-09-21T00:18:43.962Z,16.17
2022-09-21T00:21:13.325Z,9.52
2022-09-21T00:23:40.563Z,11.60
2022-09-21T00:26:16.486Z,8.98
2022-09-21T00:28:44.634Z,9.45
2022-09-21T00:31:14.463Z,7.93
2022-09-21T00:33:42.421Z,7.32
2022-09-21T00:36:11.264Z,5.78
2022-09-21T00:38:38.381Z,7.07
2022-09-21T00:41:06.875Z,7.25
2022-09-21T00:43:35.507Z,7.57
2022-09-21T00:46:14.140Z,7.30
2022-09-21T00:48:41.213Z,7.43
2022-09-21T00:51:09.177Z,7.38
2022-09-21T00:53:38.574Z,6.00
2022-09-21T00:56:06.768Z,7.05
2022-09-21T00:58:40.748Z,6.55
2022-09-21T01:01:07.559Z,6.63
2022-09-21T01:03:34.468Z,8.60
2022-09-21T01:06:01.105Z,9.80
2022-09-21T01:08:28.484Z,6.43
2022-09-21T01:11:17.775Z,8.27
2022-09-21T01:13:50.509Z,8.07
2022-09-21T01:16:27.105Z,7.07
2022-09-21T01:19:33.829Z,7.30
2022-09-21T01:22:27.765Z,5.53
2022-09-21T01:25:24.261Z,11.07
2022-09-21T01:27:57.425Z,6.78
2022-09-21T01:30:24.921Z,11.80
2022-09-21T01:33:13.961Z,5.97
2022-09-21T01:35:50.692Z,11.50
2022-09-21T01:38:27.313Z,6.93
2022-09-21T01:41:02.677Z,7.93
2022-09-21T01:43:43.756Z,8.00
2022-09-21T01:46:15.698Z,6.53
2022-09-21T01:48:46.577Z,7.25
2022-09-21T01:51:17.827Z,8.13
2022-09-21T01:53:59.285Z,7.72
2022-09-21T01:56:33.624Z,8.82
2022-09-21T01:59:09.695Z,8.18
2022-09-21T02:01:43.574Z,8.57
2022-09-21T02:04:11.955Z,7.18
2022-09-21T02:06:46.190Z,6.75
2022-09-21T02:09:13.403Z,7.85
2022-09-21T02:11:43.130Z,6.07
2022-09-21T02:14:13.057Z,7.00
2022-09-21T02:16:42.161Z,7.60
2022-09-21T02:19:26.896Z,10.23
2022-09-21T02:22:29.284Z,8.10
2022-09-21T02:25:03.989Z,8.93
2022-09-21T02:28:00.749Z,7.40
2022-09-21T02:30:27.473Z,6.13
2022-09-21T02:33:14.765Z,9.27
2022-09-21T02:35:58.744Z,11.52
2022-09-21T02:38:41.172Z,7.50
2022-09-21T02:41:28.385Z,5.65
2022-09-21T02:44:33.736Z,5.28
2022-09-21T02:47:03.033Z,5.22
2022-09-21T02:49:36.083Z,3.97
2022-09-21T02:52:08.579Z,4.15
2022-09-21T02:54:38.175Z,5.80
2022-09-21T02:57:06.062Z,6.30
2022-09-21T02:59:33.017Z,6.45
2022-09-21T03:01:59.887Z,6.25
2022-09-21T03:04:27.994Z,4.00
2022-09-21T03:06:54.684Z,4.03
2022-09-21T03:09:24.253Z,4.25
2022-09-21T03:11:51.676Z,5.13
2022-09-21T03:14:19.259Z,5.40
2022-09-21T03:16:46.028Z,4.30
2022-09-21T03:19:12.675Z,5.18
2022-09-21T03:21:43.737Z,4.53
2022-09-21T03:24:11.136Z,5.35
2022-09-21T03:26:37.984Z,4.75
2022-09-21T03:29:05.205Z,5.07
2022-09-21T03:31:32.425Z,6.13
2022-09-21T03:33:59.424Z,6.53
2022-09-21T03:36:26.042Z,5.82
2022-09-21T03:38:52.607Z,7.30
2022-09-21T03:41:19.506Z,6.95
2022-09-21T03:43:46.065Z,5.22
2022-09-21T03:46:12.634Z,5.28
2022-09-21T03:48:40.747Z,4.65
2022-09-21T03:51:07.314Z,5.88
2022-09-21T03:53:33.947Z,4.85
2022-09-21T03:56:00.843Z,4.30
2022-09-21T03:58:27.432Z,3.70
2022-09-21T04:00:54.548Z,4.85
2022-09-21T04:03:21.136Z,5.45
2022-09-21T04:05:47.695Z,6.45
2022-09-21T04:08:14.278Z,5.68
2022-09-21T04:10:42.727Z,5.15
2022-09-21T04:13:12.429Z,5.40
2022-09-21T04:15:39.169Z,4.90
2022-09-21T04:18:06.027Z,6.00
2022-09-21T04:20:32.593Z,5.13
2022-09-21T04:22:59.912Z,5.75
2022-09-21T04:25:26.641Z,4.72
2022-09-21T04:27:53.225Z,5.72
2022-09-21T04:30:19.837Z,5.45
2022-09-21T04:32:46.605Z,4.53
2022-09-21T04:35:13.131Z,4.63
2022-09-21T04:37:39.766Z,3.92
2022-09-21T04:40:07.661Z,4.25
2022-09-21T04:42:34.484Z,3.90
2022-09-21T04:45:01.126Z,4.38
2022-09-21T04:47:30.617Z,4.47
2022-09-21T04:52:23.966Z,3.53
2022-09-21T04:54:51.161Z,3.80
2022-09-21T04:57:17.775Z,4.47
2022-09-21T04:59:44.341Z,4.90
2022-09-21T05:02:10.918Z,3.67
2022-09-21T05:04:37.503Z,3.42
2022-09-21T05:07:04.270Z,3.00
2022-09-21T05:09:51.132Z,4.05
2022-09-21T05:12:17.702Z,3.90
2022-09-21T05:14:45.027Z,3.33
2022-09-21T05:17:12.854Z,3.15
2022-09-21T05:19:40.195Z,3.83
2022-09-21T05:22:07.003Z,2.83
2022-09-21T05:24:33.575Z,4.07
2022-09-21T05:27:00.532Z,2.75
2022-09-21T05:29:27.407Z,6.60
2022-09-21T05:32:12.898Z,3.67
2022-09-21T05:34:45.115Z,2.72
2022-09-21T05:37:38.000Z,5.20
2022-09-21T05:40:06.350Z,4.50
2022-09-21T05:42:33.483Z,4.95
2022-09-21T05:45:00.294Z,4.72
2022-09-21T05:47:40.758Z,4.07
2022-09-21T06:10:00.219Z,3.22
2022-09-21T06:12:26.746Z,4.25
2022-09-21T06:27:10.137Z,4.90
2022-09-21T06:29:36.711Z,5.20
2022-09-21T06:32:04.776Z,3.85
2022-09-21T06:34:31.550Z,3.60
2022-09-21T06:36:58.152Z,4.13
2022-09-21T06:39:24.758Z,3.92
2022-09-21T06:41:52.311Z,3.42
2022-09-21T06:44:18.879Z,3.35
2022-09-21T06:46:45.645Z,3.38
2022-09-21T06:49:12.206Z,3.35
2022-09-21T06:51:38.816Z,2.70
2022-09-21T06:54:05.986Z,3.50
2022-09-21T06:56:33.229Z,3.28
2022-09-21T06:58:59.803Z,3.95
2022-09-21T07:01:26.571Z,3.10
2022-09-21T07:03:54.095Z,2.88
2022-09-21T07:06:20.894Z,3.80
2022-09-21T07:11:34.771Z,3.38
2022-09-21T07:14:01.338Z,3.33
2022-09-21T07:16:28.199Z,4.50
2022-09-21T07:18:54.824Z,3.80
2022-09-21T07:21:21.901Z,4.00
2022-09-21T07:23:48.502Z,3.90
2022-09-21T07:26:15.593Z,3.75
2022-09-21T07:28:42.728Z,3.40
2022-09-21T07:31:13.957Z,2.80
2022-09-21T07:33:41.637Z,2.38
2022-09-21T07:36:11.947Z,3.05
2022-09-21T07:38:43.353Z,3.97
2022-09-21T07:41:12.913Z,4.10
2022-09-21T07:46:09.398Z,2.97
2022-09-21T07:48:36.055Z,2.80
2022-09-21T07:51:06.260Z,2.80
2022-09-21T07:53:37.798Z,3.90
2022-09-21T07:56:09.723Z,3.90
2022-09-21T07:58:56.084Z,3.50
2022-09-21T08:01:24.005Z,3.67
2022-09-21T08:03:56.732Z,3.78
2022-09-21T08:06:25.350Z,3.35
2022-09-21T08:08:57.212Z,3.07
2022-09-21T08:11:26.133Z,3.92
2022-09-21T08:13:55.114Z,3.60
2022-09-21T08:16:22.642Z,3.80
2022-09-21T08:18:50.300Z,4.13
2022-09-21T08:21:17.620Z,4.28
2022-09-21T08:23:44.163Z,4.13
2022-09-21T08:26:18.882Z,4.70
2022-09-21T08:28:50.087Z,4.45
2022-09-21T08:31:19.656Z,5.00
2022-09-21T08:33:47.613Z,4.55
2022-09-21T08:36:14.431Z,4.93
2022-09-21T08:38:41.652Z,4.60
2022-09-21T08:41:52.949Z,4.90
2022-09-21T08:44:33.391Z,4.80
2022-09-21T08:47:24.532Z,5.35
2022-09-21T08:49:58.451Z,4.63
2022-09-21T08:52:26.439Z,4.95
2022-09-21T08:55:06.030Z,5.00
2022-09-21T08:57:34.440Z,5.60
2022-09-21T09:00:02.181Z,5.75
2022-09-21T09:02:54.919Z,4.93
2022-09-21T09:05:48.696Z,5.90
2022-09-21T09:08:37.118Z,5.70
2022-09-21T09:11:22.446Z,6.20
2022-09-21T09:13:52.072Z,5.40
2022-09-21T09:16:29.640Z,5.93
2022-09-21T09:19:28.901Z,5.60
2022-09-21T09:21:56.568Z,5.68
2022-09-21T09:24:25.874Z,5.80
2022-09-21T09:26:59.799Z,5.53
2022-09-21T09:29:38.216Z,5.97
2022-09-21T09:32:11.107Z,5.65
2022-09-21T09:34:49.414Z,5.95
2022-09-21T09:37:17.714Z,5.50
2022-09-21T09:39:55.225Z,5.97
2022-09-21T09:42:49.828Z,6.38
2022-09-21T09:45:40.873Z,6.32
2022-09-21T09:48:10.557Z,5.72
2022-09-21T09:50:41.563Z,4.85
2022-09-21T09:53:26.596Z,5.97
2022-09-21T09:55:56.314Z,5.88
2022-09-21T09:58:23.187Z,5.85
2022-09-21T10:00:54.819Z,5.40
2022-09-21T10:03:23.950Z,6.10
2022-09-21T10:05:50.888Z,5.03
2022-09-21T10:08:36.925Z,5.57
2022-09-21T10:11:04.097Z,5.07
2022-09-21T10:13:33.778Z,6.03
2022-09-21T10:16:26.848Z,5.93
2022-09-21T10:19:02.379Z,5.65
2022-09-21T10:21:51.842Z,5.45
2022-09-21T10:24:33.623Z,5.95
2022-09-21T10:27:14.420Z,6.20
2022-09-21T10:29:43.933Z,5.75
2022-09-21T10:35:00.214Z,7.05
2022-09-21T10:37:30.141Z,5.60
2022-09-21T10:39:59.995Z,6.43
2022-09-21T10:42:35.473Z,4.97
2022-09-21T10:45:15.093Z,5.82
2022-09-21T10:47:48.393Z,5.72
2022-09-21T10:50:21.116Z,4.82
2022-09-21T10:52:48.940Z,4.43
2022-09-21T10:55:19.635Z,4.25
2022-09-21T10:57:47.916Z,3.85
2022-09-21T11:00:29.403Z,3.85
2022-09-21T11:03:00.925Z,4.05
2022-09-21T11:05:35.148Z,3.55
2022-09-21T11:08:07.826Z,2.85
2022-09-21T11:11:02.748Z,2.75
2022-09-21T11:13:50.630Z,2.28
2022-09-21T11:16:36.931Z,3.10
2022-09-21T11:19:32.177Z,2.33
2022-09-21T11:22:08.320Z,2.58
2022-09-21T11:24:56.065Z,2.15
2022-09-21T11:27:45.733Z,1.85
2022-09-21T11:30:15.974Z,1.48
2022-09-21T11:33:33.865Z,1.20
2022-09-21T11:36:14.828Z,1.60
2022-09-21T11:39:03.551Z,1.60
2022-09-21T11:41:40.993Z,0.80
2022-09-21T11:44:25.307Z,1.70
2022-09-21T11:47:17.239Z,1.52
2022-09-21T11:50:31.427Z,1.40
2022-09-21T11:53:30.626Z,1.02
2022-09-21T11:56:27.095Z,0.90
2022-09-21T11:59:07.075Z,1.23
2022-09-21T12:01:36.757Z,1.10
2022-09-21T12:06:48.592Z,1.00
2022-09-21T12:09:36.993Z,0.95
2022-09-21T12:12:12.945Z,0.82
2022-09-21T12:15:03.054Z,1.08
2022-09-21T12:17:33.195Z,0.90
2022-09-21T12:20:24.380Z,0.82
2022-09-21T12:22:57.797Z,1.25
2022-09-21T12:25:31.756Z,0.75
2022-09-21T12:28:04.485Z,0.80
2022-09-21T12:30:34.153Z,0.93
2022-09-21T12:33:04.137Z,0.93
2022-09-21T12:35:55.962Z,1.10
2022-09-21T12:38:35.483Z,0.70
2022-09-21T12:41:21.564Z,0.68
2022-09-21T12:43:55.505Z,0.98
2022-09-21T12:46:25.958Z,1.00
2022-09-21T12:48:53.033Z,0.82
2022-09-21T12:51:36.265Z,0.80
2022-09-21T12:54:17.045Z,1.00
2022-09-21T12:56:59.732Z,1.13
2022-09-21T12:59:37.596Z,1.10
2022-09-21T13:02:19.936Z,0.82
2022-09-21T13:05:21.093Z,1.00
2022-09-21T13:08:12.328Z,0.80
2022-09-21T13:10:43.840Z,0.95
2022-09-21T13:13:38.645Z,1.08
2022-09-21T13:16:24.423Z,0.80
2022-09-21T13:19:04.881Z,0.95
2022-09-21T13:21:33.681Z,0.80
2022-09-21T13:24:02.894Z,0.82
2022-09-21T13:29:18.983Z,0.77
2022-09-21T13:32:04.580Z,0.80
2022-09-21T13:34:39.504Z,0.88
2022-09-21T13:37:13.925Z,0.80
2022-09-21T13:40:02.332Z,0.57
2022-09-21T13:42:35.142Z,0.75
2022-09-21T13:45:06.692Z,0.80
2022-09-21T13:47:35.846Z,0.80
2022-09-21T13:50:12.622Z,0.60
2022-09-21T13:52:52.988Z,0.60
2022-09-21T13:55:28.585Z,0.80
2022-09-21T13:57:57.848Z,0.80
2022-09-21T14:03:27.835Z,0.75
2022-09-21T14:06:07.746Z,0.60
2022-09-21T14:08:41.897Z,0.88
2022-09-21T14:11:17.774Z,0.43
2022-09-21T14:14:25.763Z,0.70
2022-09-21T14:16:52.357Z,1.00
2022-09-21T14:19:18.967Z,0.77
2022-09-21T14:22:04.102Z,0.75
2022-09-21T14:24:51.307Z,0.85
2022-09-21T14:27:26.068Z,0.40
2022-09-21T14:30:06.498Z,0.50
2022-09-21T14:32:44.038Z,0.65
2022-09-21T14:35:18.572Z,0.70
2022-09-21T14:37:52.140Z,0.70
2022-09-21T14:40:25.825Z,0.60
2022-09-21T14:42:57.360Z,0.60
2022-09-21T14:45:45.733Z,0.60
2022-09-21T14:48:51.137Z,0.70
2022-09-21T14:51:22.845Z,0.68
2022-09-21T14:54:14.870Z,0.60
2022-09-21T14:57:15.270Z,0.85
2022-09-21T14:59:50.656Z,0.93
2022-09-21T15:02:23.593Z,0.60
2022-09-21T15:05:08.325Z,0.82
2022-09-21T15:07:57.868Z,0.55
2022-09-21T15:10:44.608Z,0.80
2022-09-21T15:13:25.120Z,0.60
2022-09-21T15:16:18.015Z,1.02
2022-09-21T15:18:50.617Z,0.85
2022-09-21T15:21:24.346Z,0.68
2022-09-21T15:23:52.429Z,0.60
2022-09-21T15:26:40.904Z,0.80
2022-09-21T15:29:18.405Z,0.70
2022-09-21T15:31:45.640Z,0.80
2022-09-21T15:34:15.312Z,0.70
2022-09-21T15:36:44.026Z,0.60
2022-09-21T15:39:31.198Z,1.10
2022-09-21T15:42:09.985Z,1.58
2022-09-21T15:44:38.126Z,1.20
2022-09-21T15:47:11.307Z,1.45
2022-09-21T15:49:43.241Z,1.58
2022-09-21T15:52:32.001Z,1.20
2022-09-21T15:55:02.900Z,1.80
2022-09-21T15:57:38.395Z,0.90
2022-09-21T16:00:31.776Z,0.85
2022-09-21T16:03:06.474Z,1.00
2022-09-21T16:05:45.612Z,1.00
2022-09-21T16:08:41.733Z,0.77
2022-09-21T16:11:29.869Z,0.70
2022-09-21T16:14:29.917Z,1.17
2022-09-21T16:17:26.039Z,0.80
2022-09-21T16:19:53.961Z,0.73
2022-09-21T16:22:29.963Z,0.90
2022-09-21T16:25:01.124Z,0.80
2022-09-21T16:27:30.069Z,0.88
2022-09-21T16:29:58.614Z,1.10
2022-09-21T16:32:34.739Z,0.90
2022-09-21T16:35:31.429Z,0.70
2022-09-21T16:37:58.741Z,1.00
2022-09-21T16:40:29.122Z,2.47
2022-09-21T16:42:56.864Z,2.90
2022-09-21T16:45:29.734Z,2.70
2022-09-21T16:47:57.672Z,2.83
2022-09-21T16:50:24.603Z,3.30
2022-09-21T16:52:52.793Z,2.10
2022-09-21T16:55:20.142Z,1.80
2022-09-21T16:57:48.241Z,1.60
2022-09-21T17:00:22.237Z,0.95
2022-09-21T17:02:49.599Z,1.30
2022-09-21T17:05:19.463Z,1.10
2022-09-21T17:07:53.546Z,1.17
2022-09-21T17:10:21.604Z,1.30
2022-09-21T17:12:48.351Z,1.60
2022-09-21T17:15:15.189Z,1.70
2022-09-21T17:17:41.753Z,1.48
2022-09-21T17:20:20.483Z,1.77
2022-09-21T17:22:47.129Z,1.52
2022-09-21T17:25:13.814Z,1.45
2022-09-21T17:27:42.342Z,1.98
2022-09-21T17:30:13.797Z,1.80
2022-09-21T17:32:42.602Z,2.70
2022-09-21T17:35:33.185Z,3.28
2022-09-21T17:38:00.330Z,3.03
2022-09-21T17:40:27.508Z,4.25
2022-09-21T17:43:06.492Z,5.57
2022-09-21T17:45:42.470Z,5.75
2022-09-21T17:48:17.714Z,5.70
2022-09-21T17:50:44.564Z,5.15
2022-09-21T17:53:29.996Z,4.03
2022-09-21T17:56:15.105Z,4.35
2022-09-21T17:58:51.663Z,4.90
2022-09-21T18:01:33.930Z,5.88
2022-09-21T18:04:01.018Z,5.28
2022-09-21T18:06:28.514Z,6.18
2022-09-21T18:08:55.942Z,5.50
2022-09-21T18:11:44.227Z,5.50
2022-09-21T18:14:38.737Z,5.95
2022-09-21T18:17:32.399Z,9.00
2022-09-21T18:20:29.885Z,6.88
2022-09-21T18:23:09.890Z,5.90
2022-09-21T18:25:47.825Z,7.32
2022-09-21T18:28:58.111Z,7.18
2022-09-21T18:31:46.435Z,5.63
2022-09-21T18:34:43.542Z,5.43
2022-09-21T18:37:22.590Z,4.97
2022-09-21T18:40:04.407Z,4.93
2022-09-21T18:42:55.854Z,4.75
2022-09-21T18:45:27.730Z,4.40
2022-09-21T18:48:33.384Z,4.47
2022-09-21T18:51:17.305Z,3.72
2022-09-21T18:53:47.823Z,4.30
2022-09-21T18:56:15.211Z,4.65
2022-09-21T18:58:43.288Z,4.32
2022-09-21T19:01:14.472Z,4.60
2022-09-21T19:03:43.892Z,4.80
2022-09-21T19:06:10.741Z,4.95
2022-09-21T19:08:37.600Z,4.03
2022-09-21T19:11:14.476Z,3.88
2022-09-21T19:14:08.362Z,4.22
2022-09-21T19:16:47.934Z,4.00
2022-09-21T19:19:28.465Z,3.70
2022-09-21T19:22:04.376Z,3.92
2022-09-21T19:24:50.152Z,4.00
2022-09-21T19:27:23.120Z,4.82
2022-09-21T19:30:06.313Z,4.85
2022-09-21T19:32:43.709Z,4.97
2022-09-21T19:35:22.835Z,5.63
2022-09-21T19:37:52.102Z,5.25
2022-09-21T19:40:21.524Z,5.20
2022-09-21T19:45:52.660Z,5.95
2022-09-21T19:48:26.589Z,4.85
2022-09-21T19:50:55.585Z,5.18
2022-09-21T19:53:41.538Z,5.40
2022-09-21T19:56:32.599Z,5.43
2022-09-21T19:59:17.950Z,5.57
2022-09-21T20:02:04.130Z,4.80
2022-09-21T20:05:01.417Z,5.18
2022-09-21T20:07:53.162Z,5.03
2022-09-21T20:10:40.916Z,5.85
2022-09-21T20:13:22.059Z,5.55
2022-09-21T20:16:03.933Z,5.43
2022-09-21T20:18:40.726Z,5.25
2022-09-21T20:21:16.142Z,5.35
2022-09-21T20:23:43.132Z,4.95
2022-09-21T20:26:24.821Z,4.38
2022-09-21T20:28:52.784Z,4.57
2022-09-21T20:31:24.734Z,4.75
2022-09-21T20:33:51.426Z,5.38
2022-09-21T20:36:18.062Z,5.15
2022-09-21T20:38:44.825Z,5.28
2022-09-21T20:41:12.728Z,5.28
2022-09-21T20:43:39.945Z,5.10
2022-09-21T20:46:06.954Z,5.28
2022-09-21T20:48:33.578Z,5.03
2022-09-21T20:51:01.639Z,4.60
2022-09-21T20:53:28.239Z,5.50
2022-09-21T20:55:57.115Z,5.22
2022-09-21T20:58:24.763Z,4.72
2022-09-21T21:00:57.907Z,5.15
2022-09-21T21:03:25.303Z,5.07
2022-09-21T21:05:51.838Z,5.15
2022-09-21T21:08:18.818Z,4.78
2022-09-21T21:10:48.906Z,4.68
2022-09-21T21:13:15.507Z,4.55
2022-09-21T21:15:42.121Z,4.95
2022-09-21T21:18:12.422Z,4.55
2022-09-21T21:20:39.681Z,5.50
2022-09-21T21:23:08.287Z,4.90
2022-09-21T21:25:35.272Z,4.77
2022-09-21T21:28:02.517Z,4.78
2022-09-21T21:30:29.127Z,5.28
2022-09-21T21:32:56.216Z,5.18
2022-09-21T21:35:22.855Z,4.45
2022-09-21T21:37:49.900Z,4.13
2022-09-21T21:40:16.865Z,4.30
2022-09-21T21:42:43.509Z,4.63
2022-09-21T21:45:10.584Z,4.22
2022-09-21T21:47:40.302Z,3.80
2022-09-21T21:50:08.535Z,4.25
2022-09-21T21:52:35.124Z,3.28
2022-09-21T21:55:02.376Z,3.85
2022-09-21T21:57:29.123Z,4.18
2022-09-21T21:59:55.698Z,3.65
2022-09-21T22:02:22.433Z,3.40
2022-09-21T22:04:49.134Z,3.70
2022-09-21T22:07:15.767Z,4.43
2022-09-21T22:09:42.371Z,3.70
2022-09-21T22:12:10.234Z,3.95
2022-09-21T22:14:36.821Z,4.30
2022-09-21T22:17:03.761Z,3.83
2022-09-21T22:19:30.339Z,3.92
2022-09-21T22:21:57.756Z,3.97
2022-09-21T22:24:24.380Z,4.18
2022-09-21T22:26:51.126Z,4.03
2022-09-21T22:29:17.953Z,3.50
2022-09-21T22:31:47.328Z,3.38
2022-09-21T22:34:15.003Z,3.75
2022-09-21T22:36:43.843Z,3.42
2022-09-21T22:39:11.416Z,3.72
2022-09-21T22:41:39.870Z,3.53
2022-09-21T22:44:06.908Z,4.00
2022-09-21T22:46:34.083Z,3.80
2022-09-21T22:49:01.079Z,4.10
2022-09-21T22:51:28.555Z,3.38
2022-09-21T22:53:55.472Z,3.63
2022-09-21T22:56:24.995Z,3.42
2022-09-21T23:01:26.883Z,3.15
2022-09-21T23:03:59.252Z,2.78
2022-09-21T23:06:29.637Z,2.92
2022-09-21T23:08:57.787Z,2.80
2022-09-21T23:11:28.074Z,3.10
2022-09-21T23:13:56.161Z,2.80
2022-09-21T23:16:24.425Z,2.85
2022-09-21T23:18:51.754Z,3.10
2022-09-21T23:21:22.075Z,3.08
2022-09-21T23:23:49.094Z,3.00
2022-09-21T23:26:18.999Z,3.35
2022-09-21T23:28:51.038Z,3.10
2022-09-21T23:31:18.561Z,2.90
2022-09-21T23:33:56.604Z,3.05
2022-09-21T23:36:27.215Z,2.75
2022-09-21T23:38:54.300Z,3.15
2022-09-21T23:41:26.575Z,2.90
2022-09-21T23:43:53.844Z,2.70
2022-09-21T23:46:23.358Z,2.47
2022-09-21T23:51:17.576Z,2.45
2022-09-21T23:53:45.189Z,2.42
2022-09-21T23:56:17.466Z,2.70
2022-09-21T23:58:44.346Z,2.50
